Time;durP1;ratioP1;P1;durP2;ratioP2;P2;SDS_P1;SDS_P2;PMS_P1;PMS_P2;Temp;Humidity;BMP_temperature;BMP_pressure;BME280_temperature;BME280_humidity;BME280_pressure;Samples;Min_cycle;Max_cycle;Signal;HPM_P1;HPM_P2
2021/10/12 00:09:42;;;;;;;2.70;0.50;;;19.40;63.00;;;;;;20485199;28;20186;-57
2021/10/12 00:19:42;;;;;;;1.60;0.47;;;19.40;63.10;;;;;;20533798;28;20065;-58
2021/10/12 00:29:43;;;;;;;1.73;0.50;;;19.40;62.90;;;;;;20575899;28;20034;-58
2021/10/12 00:39:43;;;;;;;3.03;0.75;;;19.40;62.60;;;;;;20563582;28;20035;-58
2021/10/12 00:49:44;;;;;;;3.78;0.50;;;19.40;62.30;;;;;;20579532;28;20061;-59
2021/10/12 00:59:45;;;;;;;2.83;0.50;;;19.30;62.20;;;;;;20588345;28;20022;-59
2021/10/12 01:09:46;;;;;;;1.63;0.50;;;19.30;62.10;;;;;;20577842;28;20034;-58
2021/10/12 01:19:47;;;;;;;1.55;0.55;;;19.40;61.60;;;;;;20589386;28;20466;-58
2021/10/12 01:29:48;;;;;;;5.25;0.60;;;19.30;61.60;;;;;;20589558;28;20066;-57
2021/10/12 01:39:49;;;;;;;3.85;0.75;;;19.20;61.70;;;;;;20588978;28;20042;-57
2021/10/12 01:49:49;;;;;;;5.72;1.88;;;19.20;61.50;;;;;;20574015;28;20050;-60
2021/10/12 01:59:50;;;;;;;2.13;0.30;;;19.20;61.50;;;;;;20574696;28;20027;-58
2021/10/12 02:09:50;;;;;;;1.00;0.30;;;19.20;61.20;;;;;;20584030;28;20038;-58
2021/10/12 02:19:51;;;;;;;4.72;0.50;;;19.20;61.40;;;;;;20575274;28;20481;-58
2021/10/12 02:29:51;;;;;;;5.97;0.60;;;19.20;61.30;;;;;;20583726;28;20105;-59
2021/10/12 02:39:52;;;;;;;4.25;0.47;;;19.20;61.20;;;;;;20583262;28;20041;-58
2021/10/12 02:49:52;;;;;;;2.30;0.50;;;19.20;61.30;;;;;;20540290;23;20048;-62
2021/10/12 02:59:53;;;;;;;3.00;0.68;;;19.10;61.30;;;;;;20518962;28;20119;-65
2021/10/12 03:09:54;;;;;;;2.22;0.40;;;19.10;61.50;;;;;;20517650;28;20163;-64
2021/10/12 03:19:54;;;;;;;2.80;0.20;;;19.10;61.20;;;;;;20519855;28;20035;-64
2021/10/12 03:29:55;;;;;;;2.40;0.50;;;19.00;61.60;;;;;;20513673;28;20421;-64
2021/10/12 03:39:55;;;;;;;3.08;0.30;;;19.00;61.50;;;;;;20539364;28;20429;-62
2021/10/12 03:49:56;;;;;;;2.37;0.40;;;19.00;61.40;;;;;;20538168;28;20074;-63
2021/10/12 03:59:57;;;;;;;5.10;0.40;;;19.00;61.30;;;;;;20535153;28;20034;-65
2021/10/12 04:09:57;;;;;;;1.58;0.50;;;19.00;61.40;;;;;;20526165;28;20556;-65
2021/10/12 04:19:58;;;;;;;2.22;0.50;;;19.00;61.40;;;;;;20518075;28;20121;-66
2021/10/12 04:29:58;;;;;;;4.95;0.63;;;19.30;60.80;;;;;;20534703;28;20062;-62
2021/10/12 04:39:59;;;;;;;1.23;0.30;;;19.50;60.90;;;;;;20525999;28;20067;-62
2021/10/12 04:50:00;;;;;;;3.40;0.47;;;19.70;60.50;;;;;;20572302;28;20035;-63
2021/10/12 05:00:01;;;;;;;1.55;0.50;;;20.00;60.10;;;;;;20572015;28;20540;-63
2021/10/12 05:10:01;;;;;;;1.73;0.70;;;20.10;59.90;;;;;;20564077;28;20034;-63
2021/10/12 05:20:03;;;;;;;4.72;0.30;;;20.10;59.90;;;;;;20572422;28;20035;-63
2021/10/12 05:30:06;;;;;;;3.58;0.50;;;20.10;60.00;;;;;;20564015;28;20039;-64
2021/10/12 05:40:07;;;;;;;4.43;0.57;;;20.10;59.90;;;;;;20576999;28;20034;-64
2021/10/12 05:50:08;;;;;;;4.13;0.70;;;20.10;59.90;;;;;;20575578;28;20026;-64
2021/10/12 06:00:09;;;;;;;3.25;0.40;;;20.10;59.80;;;;;;20587418;28;20031;-64
2021/10/12 06:10:10;;;;;;;3.75;0.90;;;20.10;59.90;;;;;;20586801;28;20409;-64
2021/10/12 06:20:10;;;;;;;9.90;1.20;;;20.20;59.90;;;;;;20572134;28;20117;-63
2021/10/12 06:30:11;;;;;;;11.18;3.05;;;20.30;60.50;;;;;;20584584;28;20420;-63
2021/10/12 06:40:12;;;;;;;11.40;1.88;;;20.40;59.90;;;;;;20584312;28;20038;-63
2021/10/12 06:50:14;;;;;;;8.88;1.80;;;20.50;59.80;;;;;;20582746;28;20034;-65
2021/10/12 07:00:16;;;;;;;6.18;1.35;;;20.50;59.70;;;;;;20574867;28;20087;-65
2021/10/12 07:10:17;;;;;;;4.40;1.58;;;20.50;59.70;;;;;;20579202;28;20461;-63
2021/10/12 07:20:17;;;;;;;9.02;1.40;;;20.50;59.70;;;;;;20554169;28;20073;-62
2021/10/12 07:30:18;;;;;;;8.57;1.27;;;20.50;59.80;;;;;;20542267;28;20396;-65
2021/10/12 07:40:19;;;;;;;6.65;1.20;;;20.50;59.80;;;;;;20546959;28;20027;-64
2021/10/12 07:50:20;;;;;;;6.57;0.93;;;20.50;60.00;;;;;;20545249;28;20396;-63
2021/10/12 08:00:20;;;;;;;3.38;1.02;;;20.50;60.00;;;;;;20532036;28;20031;-62
2021/10/12 08:10:22;;;;;;;4.40;1.27;;;20.50;60.00;;;;;;20512575;28;20175;-65
2021/10/12 08:20:23;;;;;;;3.63;0.68;;;20.50;59.90;;;;;;20532840;28;20485;-64
2021/10/12 08:30:23;;;;;;;6.93;1.67;;;20.50;59.70;;;;;;20523700;28;20030;-64
2021/10/12 08:40:24;;;;;;;4.85;1.02;;;20.50;59.60;;;;;;20524671;28;20031;-62
2021/10/12 08:50:25;;;;;;;5.80;0.97;;;20.50;59.70;;;;;;20548073;28;20038;-63
2021/10/12 09:00:28;;;;;;;5.88;1.30;;;20.50;59.50;;;;;;20547000;28;20019;-65
2021/10/12 09:10:29;;;;;;;3.05;1.30;;;20.40;59.50;;;;;;20530298;28;20094;-63
2021/10/12 09:20:31;;;;;;;5.43;1.25;;;20.40;59.60;;;;;;20542000;28;20043;-63
2021/10/12 09:30:35;;;;;;;6.95;1.02;;;20.30;59.70;;;;;;20556069;28;20035;-64
2021/10/12 09:40:38;;;;;;;2.97;1.13;;;20.30;59.80;;;;;;20582335;28;20573;-63
2021/10/12 09:50:40;;;;;;;7.82;1.30;;;20.30;59.90;;;;;;20568365;28;20046;-64
2021/10/12 10:00:41;;;;;;;5.40;1.10;;;20.30;60.00;;;;;;20577793;28;20039;-64
2021/10/12 10:10:42;;;;;;;7.22;0.80;;;20.30;60.50;;;;;;20538892;28;20035;-61
2021/10/12 10:20:43;;;;;;;7.85;0.98;;;20.30;60.00;;;;;;20586574;28;20027;-62
2021/10/12 10:31:05;;;;;;;5.75;1.63;;;20.30;60.20;;;;;;20558538;28;20031;-62
2021/10/12 10:41:21;;;;;;;1.83;0.70;;;20.30;60.10;;;;;;20586034;28;20035;-64
2021/10/12 10:51:22;;;;;;;4.28;1.13;;;20.20;60.20;;;;;;20582899;28;20092;-61
2021/10/12 11:01:36;;;;;;;2.45;0.63;;;20.20;60.10;;;;;;20581081;28;20117;-63
2021/10/12 11:11:37;;;;;;;4.72;1.25;;;20.10;59.60;;;;;;20567972;28;20093;-63
2021/10/12 11:21:37;;;;;;;3.83;1.15;;;20.10;59.00;;;;;;20567546;28;20113;-63
2021/10/12 11:31:38;;;;;;;3.70;0.80;;;20.10;58.70;;;;;;20575967;28;20055;-64
2021/10/12 11:41:39;;;;;;;3.90;0.63;;;20.10;58.70;;;;;;20577992;28;20497;-63
2021/10/12 11:51:43;;;;;;;2.78;0.60;;;20.10;58.70;;;;;;20579029;28;20046;-66
2021/10/12 12:01:45;;;;;;;2.88;0.98;;;20.10;58.40;;;;;;20563110;28;20050;-66
2021/10/12 12:11:46;;;;;;;2.17;0.70;;;20.00;59.50;;;;;;20576276;28;20089;-65
2021/10/12 12:21:47;;;;;;;5.18;1.00;;;20.00;59.40;;;;;;20496800;28;20066;-65
2021/10/12 12:31:51;;;;;;;2.72;0.40;;;20.00;59.10;;;;;;20506697;28;20414;-64
2021/10/12 12:41:51;;;;;;;2.83;0.60;;;20.00;59.20;;;;;;20527803;28;20031;-63
2021/10/12 12:51:52;;;;;;;6.28;2.10;;;19.80;59.50;;;;;;20536557;28;20089;-64
2021/10/12 13:01:53;;;;;;;3.80;1.23;;;19.80;58.80;;;;;;20533915;28;20045;-65
2021/10/12 13:11:53;;;;;;;3.97;1.42;;;19.80;59.40;;;;;;20529153;28;20038;-65
2021/10/12 13:21:54;;;;;;;3.53;0.98;;;19.80;59.20;;;;;;20524902;28;20031;-65
2021/10/12 13:31:56;;;;;;;5.47;1.10;;;19.80;59.40;;;;;;20531883;28;20158;-64
2021/10/12 13:41:57;;;;;;;2.88;0.93;;;19.70;59.60;;;;;;20510832;28;20035;-65
2021/10/12 13:51:57;;;;;;;4.10;0.88;;;19.70;59.60;;;;;;20544629;28;20030;-64
2021/10/12 14:01:58;;;;;;;2.72;0.88;;;19.60;59.70;;;;;;20551160;28;20424;-65
2021/10/12 14:11:58;;;;;;;5.28;1.13;;;19.60;59.50;;;;;;20530850;28;20353;-64
2021/10/12 14:22:00;;;;;;;1.67;0.63;;;19.60;59.70;;;;;;20527280;28;20059;-65
2021/10/12 14:32:03;;;;;;;2.00;0.77;;;19.80;59.40;;;;;;20514888;28;20042;-65
2021/10/12 14:42:04;;;;;;;2.55;1.77;;;19.90;59.30;;;;;;20511573;28;20154;-64
2021/10/12 14:52:05;;;;;;;3.33;1.77;;;20.10;59.10;;;;;;20572785;28;20502;-64
2021/10/12 15:02:06;;;;;;;5.23;2.40;;;20.40;58.80;;;;;;20554652;28;20393;-64
2021/10/12 15:12:08;;;;;;;3.72;2.30;;;20.60;58.50;;;;;;20573456;28;20700;-65
2021/10/12 15:22:09;;;;;;;6.07;2.53;;;20.70;58.40;;;;;;20566567;28;20022;-64
2021/10/12 15:32:09;;;;;;;4.85;2.40;;;20.70;58.40;;;;;;20579785;28;20389;-63
2021/10/12 15:42:16;;;;;;;4.32;2.30;;;20.60;58.50;;;;;;20578687;28;20031;-64
2021/10/12 15:52:17;;;;;;;4.75;2.60;;;20.60;58.50;;;;;;20571884;28;20548;-66
2021/10/12 16:02:17;;;;;;;5.10;2.78;;;20.50;58.60;;;;;;20577231;28;20027;-65
2021/10/12 16:12:18;;;;;;;4.87;1.97;;;20.50;58.60;;;;;;20576557;28;20429;-65
2021/10/12 16:22:18;;;;;;;5.03;2.38;;;20.50;58.40;;;;;;20575749;28;20474;-65
2021/10/12 16:32:19;;;;;;;3.67;2.10;;;20.50;58.50;;;;;;20575993;28;20038;-64
2021/10/12 16:42:19;;;;;;;5.17;2.00;;;20.50;58.40;;;;;;20542184;23;20300;-56
2021/10/12 16:52:20;;;;;;;3.50;1.70;;;20.50;58.80;;;;;;20556402;28;20026;-57
2021/10/12 17:02:20;;;;;;;2.83;1.52;;;20.50;58.30;;;;;;20575547;28;20146;-57
2021/10/12 17:12:21;;;;;;;3.13;1.67;;;20.50;58.30;;;;;;20563672;28;20490;-52
2021/10/12 17:22:22;;;;;;;5.18;1.88;;;20.50;58.20;;;;;;20575698;28;20041;-59
2021/10/12 17:32:27;;;;;;;3.58;1.50;;;20.60;58.20;;;;;;20551633;28;20039;-56
2021/10/12 17:42:30;;;;;;;5.65;1.77;;;20.60;58.10;;;;;;20550773;28;20560;-54
2021/10/12 17:53:31;;;;;;;9.20;2.05;;;20.80;58.50;;;;;;20954781;28;20188;-62
2021/10/12 18:03:32;;;;;;;9.35;1.88;;;21.10;56.70;;;;;;20919298;28;20075;-63
2021/10/12 18:13:33;;;;;;;9.80;1.90;;;21.00;57.10;;;;;;20956418;28;20499;-63
2021/10/12 18:23:34;;;;;;;11.65;2.28;;;20.90;57.20;;;;;;20970112;28;20458;-63
2021/10/12 18:33:34;;;;;;;6.35;2.03;;;20.80;57.40;;;;;;20969394;28;20503;-64
2021/10/12 18:43:35;;;;;;;7.93;1.83;;;20.80;57.40;;;;;;20970480;28;20028;-62
2021/10/12 18:53:36;;;;;;;8.32;1.92;;;20.80;57.50;;;;;;21015796;28;20028;-65
2021/10/12 19:03:38;;;;;;;8.75;2.72;;;20.80;57.60;;;;;;20969064;28;20017;-65
2021/10/12 19:13:41;;;;;;;14.45;2.10;;;20.70;58.10;;;;;;20918917;28;20033;-66
2021/10/12 19:23:45;;;;;;;6.20;1.20;;;20.60;58.30;;;;;;20922853;28;20380;-65
2021/10/12 19:33:46;;;;;;;7.80;2.55;;;20.50;58.20;;;;;;20931125;28;20056;-67
2021/10/12 19:43:51;;;;;;;9.02;1.40;;;20.50;58.20;;;;;;20939446;28;20025;-64
2021/10/12 19:53:53;;;;;;;9.25;2.63;;;20.40;58.20;;;;;;20916653;28;20384;-64
2021/10/12 20:03:56;;;;;;;4.68;1.92;;;20.50;57.80;;;;;;20915017;28;20119;-65
2021/10/12 20:13:57;;;;;;;4.38;1.83;;;20.60;57.60;;;;;;20912252;28;20035;-65
2021/10/12 20:23:58;;;;;;;5.78;1.30;;;20.40;58.00;;;;;;20912749;28;20534;-66
2021/10/12 20:33:58;;;;;;;6.35;1.08;;;20.30;58.30;;;;;;20912447;28;20021;-66
2021/10/12 20:43:59;;;;;;;4.65;1.33;;;20.10;58.80;;;;;;20915678;28;20032;-66
2021/10/12 20:53:59;;;;;;;3.63;1.00;;;20.10;58.90;;;;;;20941760;28;20021;-66
2021/10/12 21:04:00;;;;;;;6.13;1.33;;;20.10;59.00;;;;;;20950312;28;20029;-67
2021/10/12 21:14:00;;;;;;;9.27;1.13;;;20.10;58.80;;;;;;20940873;28;20040;-64
2021/10/12 21:24:01;;;;;;;3.35;1.05;;;20.10;58.60;;;;;;20934035;28;20119;-67
2021/10/12 21:34:03;;;;;;;7.60;1.17;;;20.10;58.60;;;;;;20914701;28;20033;-67
2021/10/12 21:44:04;;;;;;;3.40;2.10;;;19.90;59.00;;;;;;20975058;28;20054;-66
2021/10/12 21:54:04;;;;;;;4.32;0.90;;;20.00;58.60;;;;;;20983532;28;20056;-67
2021/10/12 22:04:05;;;;;;;3.23;1.07;;;20.00;58.50;;;;;;20961634;28;20546;-65
2021/10/12 22:14:05;;;;;;;4.95;0.95;;;19.60;59.50;;;;;;20983472;28;20450;-64
2021/10/12 22:24:06;;;;;;;3.13;1.20;;;19.60;59.70;;;;;;20984902;28;20061;-65
2021/10/12 22:34:07;;;;;;;4.80;0.70;;;19.40;59.80;;;;;;20986099;22;20071;-56
2021/10/12 22:44:07;;;;;;;3.20;0.75;;;19.40;59.90;;;;;;20995829;28;20023;-54
2021/10/12 22:54:09;;;;;;;2.00;0.85;;;19.30;59.90;;;;;;20995471;28;20390;-56
2021/10/12 23:04:09;;;;;;;5.85;1.25;;;19.30;59.80;;;;;;20994677;28;20036;-54
2021/10/12 23:14:10;;;;;;;2.22;0.90;;;19.20;59.90;;;;;;20993335;28;20047;-57
2021/10/12 23:24:11;;;;;;;2.78;0.70;;;19.20;59.80;;;;;;20993561;28;20108;-58
2021/10/12 23:34:15;;;;;;;2.03;0.60;;;19.20;59.80;;;;;;20992579;28;20035;-60
2021/10/12 23:44:16;;;;;;;3.97;0.68;;;19.10;60.00;;;;;;20991458;28;20051;-59
2021/10/12 23:54:17;;;;;;;4.57;0.52;;;19.20;59.30;;;;;;20989370;28;20064;-59
